Houston, TX (77001)

1:48 PM CDT on September 01, 2015 (GMT -0500)
Port of Houston | | Change Station
CLOSE
Current Station
Personal Weather Station
Location: Houston, TX
Elevation: 30 ft
Nearby Weather Stations

Elev 30 ft 29.72 °N, 95.27 °W | Updated 2 minutes ago

Rain
Rain
76.5 °F
Feels Like 77 °F
N
5.0
Wind Variable Wind from NNW
Gusts 6.0 mph

Today
High -- | Low -- °F
--% Chance of Precip.
Yesterday
High -- | Low -- °F
Precip. -- in
6:58 AM 7:43 PM
Waning Gibbous, 87% visible
Pressure 30.07 in
Visibility 10.0 miles
Clouds Few 7000 ft
Mostly Cloudy 10000 ft
Overcast 13000 ft
Heat Index 77 °F
Dew Point 74 °F
Humidity 93%
Rainfall 0.08 in
Snow Depth Not available.
UV 3 out of 12
Pollen 5.50 out of 12
Air Quality Not available.
Flu Activity Not available.
METAR KHOU 011753Z 09005KT 10SM -RA FEW070 BKN100 OVC130 23/21 A3006 RMK AO2 TSB08E40 SLP183 TS MOV N P0014 60023 T02280211 10256 20228 50007
Pressure 30.07 in
Visibility 10.0 miles
Clouds Few 7000 ft
Mostly Cloudy 10000 ft
Overcast 13000 ft
Heat Index 77 °F
Dew Point 74 °F
Humidity 93%
Rainfall 0.08 in
Snow Depth Not available.
UV 3 out of 12
Pollen 5.50 out of 12
Air Quality Not available.
Flu Activity Not available.
METAR KHOU 011753Z 09005KT 10SM -RA FEW070 BKN100 OVC130 23/21 A3006 RMK AO2 TSB08E40 SLP183 TS MOV N P0014 60023 T02280211 10256 20228 50007

10-Day Weather Forecast

×

Almanac

Astronomy

Sep. 01, 2015 Rise Set
Actual Time
Civil Twilight
Nautical Twilight
Astronomical Twilight
Moon
Length of Visible Light
Length of Day
Tomorrow will be .
, % of the Moon is Illuminated

Today's Extremes

State Highs State Lows

Community

WunderPhotos

Upload Photos

1,851,593 photos uploaded!

WunderBlogs® & News

Nearby

Air Quality

  Air Quality AQ Index Pollutant
Not available.

Snow Depth

Station Depth Elevation

Earthquake Activity

City Distance Mag. Time & Date
Minimum magnitude displayed is 2.5.

Coastal Water Temperatures

Place Temperature

Stations

Nearby Weather Stations

Station Location Temp. Windchill Dew Point Humidity Wind Precip. Elev Updated Type